High Springs, Florida
Current Conditions -  °F | °C
As of 3:53 AM on Wednesday 22 Oct 2014 (Local Time) from KGNV Reporting Station
Clear Clear  
Wind Chill: 16°   Ceiling: Unl
Heat Index: 16°   Visibility: 10mi
Dew Point: 14°   Wind: 6mph
Humidity: 90%   Direction: 330°NNW
Pressure: 29.95"   Gusts: NA
Location:  29.82°N, 82.59°W
Report Text: KGNV 220753Z AUTO 33005KT 10SM CLR 16/14 A2995 RMK AO2 SLP138 T01560139
Loading
Personal Weather Stations






























Interactive Weather Map
Tropical Storm Tracking
New forecast layout! Learn more

10-Day Weather Forecast

Advertisements
Track Severe Weather on mobile